Time;durP1;ratioP1;P1;durP2;ratioP2;P2;SDS_P1;SDS_P2;PMS_P1;PMS_P2;Temp;Humidity;BMP_temperature;BMP_pressure;BME280_temperature;BME280_humidity;BME280_pressure;Samples;Min_cycle;Max_cycle;Signal;HPM_P1;HPM_P2
2022/11/21 00:09:26;;;;;;;1999.90;999.90;;;7.80;99.90;;;;;;6745943;88;20192;-76
2022/11/21 00:19:27;;;;;;;1999.90;999.90;;;7.80;99.90;;;;;;6746008;87;20224;-76
2022/11/21 00:29:28;;;;;;;1999.90;999.90;;;7.70;99.90;;;;;;6747483;88;20211;-76
2022/11/21 00:39:28;;;;;;;1999.90;999.90;;;7.90;99.90;;;;;;6743867;77;20208;-74
2022/11/21 00:49:29;;;;;;;1999.90;999.90;;;8.00;99.90;;;;;;6729916;88;20197;-73
2022/11/21 00:59:29;;;;;;;1999.90;999.90;;;7.90;99.90;;;;;;6735247;88;20185;-73
2022/11/21 01:09:30;;;;;;;1999.90;999.90;;;7.90;99.90;;;;;;6742452;88;20639;-74
2022/11/21 01:19:31;;;;;;;1999.90;999.90;;;7.90;99.90;;;;;;6753710;88;20171;-73
2022/11/21 01:29:31;;;;;;;1999.90;999.90;;;7.70;99.90;;;;;;6737731;88;20188;-74
2022/11/21 01:39:32;;;;;;;1999.90;999.90;;;7.60;99.90;;;;;;6736548;88;20308;-73
2022/11/21 01:49:33;;;;;;;1999.90;999.90;;;7.50;99.90;;;;;;6734875;88;20609;-74
2022/11/21 01:59:33;;;;;;;1999.90;999.90;;;7.30;99.90;;;;;;6726914;88;20193;-73
2022/11/21 02:09:39;;;;;;;1999.90;999.90;;;7.20;99.90;;;;;;6728971;88;20190;-74
2022/11/21 02:19:51;;;;;;;1999.90;999.90;;;7.40;99.90;;;;;;6728320;88;20207;-73
2022/11/21 02:29:51;;;;;;;1999.90;999.90;;;7.40;99.90;;;;;;6726374;88;20502;-74
2022/11/21 02:39:52;;;;;;;1999.90;999.90;;;7.30;99.90;;;;;;6727459;88;20728;-73
2022/11/21 02:50:00;;;;;;;1999.90;999.90;;;7.30;99.90;;;;;;6727234;88;20659;-73
2022/11/21 03:00:01;;;;;;;1999.90;999.90;;;7.10;99.90;;;;;;6727058;88;20937;-74
2022/11/21 03:10:02;;;;;;;1999.90;999.90;;;7.00;99.90;;;;;;6727974;88;20221;-74
2022/11/21 03:20:04;;;;;;;1999.90;999.90;;;7.00;99.90;;;;;;6728286;88;20224;-74
2022/11/21 03:30:05;;;;;;;1999.90;999.90;;;7.00;99.90;;;;;;6729689;88;20207;-74
2022/11/21 03:40:06;;;;;;;1999.90;999.90;;;7.10;99.90;;;;;;6729433;88;20669;-74
2022/11/21 03:50:07;;;;;;;1999.90;999.90;;;7.10;99.90;;;;;;6730005;88;20661;-74
2022/11/21 04:00:08;;;;;;;1999.90;999.90;;;7.10;99.90;;;;;;6730132;88;20205;-74
2022/11/21 04:10:09;;;;;;;1999.90;999.90;;;7.10;99.90;;;;;;6728492;88;20770;-74
2022/11/21 04:20:10;;;;;;;1999.90;999.90;;;7.10;99.90;;;;;;6730129;88;20290;-74
2022/11/21 04:30:11;;;;;;;1999.90;999.90;;;7.00;99.90;;;;;;6735539;88;20521;-73
2022/11/21 04:40:12;;;;;;;1999.90;999.90;;;6.90;99.90;;;;;;6730372;88;20194;-72
2022/11/21 04:50:17;;;;;;;1999.90;999.90;;;6.70;99.90;;;;;;6735986;88;20207;-72
2022/11/21 05:00:18;;;;;;;1999.90;999.90;;;6.60;99.90;;;;;;6728814;88;20733;-72
2022/11/21 05:10:18;;;;;;;1999.90;999.90;;;6.60;99.90;;;;;;6729452;88;20244;-73
2022/11/21 05:20:19;;;;;;;1999.90;999.90;;;6.70;99.90;;;;;;6729475;88;20231;-72
2022/11/21 05:30:19;;;;;;;1999.90;999.90;;;6.80;99.90;;;;;;6730185;88;20341;-72
2022/11/21 05:40:19;;;;;;;1999.90;999.90;;;6.90;99.90;;;;;;6748754;88;20205;-72
2022/11/21 05:50:20;;;;;;;1999.90;999.90;;;6.70;99.90;;;;;;6728084;88;20173;-72
2022/11/21 06:00:21;;;;;;;1999.90;999.90;;;6.70;99.90;;;;;;6727954;88;20238;-73
2022/11/21 06:10:21;;;;;;;1999.90;999.90;;;6.70;99.90;;;;;;6730078;88;20197;-74
2022/11/21 06:20:22;;;;;;;1999.90;999.90;;;6.90;99.90;;;;;;6725938;88;20192;-73
2022/11/21 06:30:22;;;;;;;1999.90;999.90;;;6.90;99.90;;;;;;6733215;88;20211;-74
2022/11/21 06:40:23;;;;;;;1999.90;999.90;;;6.80;99.90;;;;;;6729999;77;20215;-77
2022/11/21 06:50:24;;;;;;;1999.90;999.90;;;6.70;99.90;;;;;;6731132;88;20202;-77
2022/11/21 07:00:26;;;;;;;1999.90;999.90;;;6.60;99.90;;;;;;6736138;88;20638;-76
2022/11/21 07:10:28;;;;;;;1999.90;999.90;;;6.70;99.90;;;;;;6725685;88;20326;-77
2022/11/21 07:20:29;;;;;;;1999.90;999.90;;;6.60;99.90;;;;;;6729185;88;20186;-77
2022/11/21 07:30:29;;;;;;;1999.90;999.90;;;6.80;99.90;;;;;;6730225;88;20211;-77
2022/11/21 07:40:33;;;;;;;1999.90;999.90;;;6.60;99.90;;;;;;6728993;88;20192;-78
2022/11/21 07:50:34;;;;;;;1999.90;999.90;;;6.60;99.90;;;;;;6735644;88;20233;-77
2022/11/21 08:00:37;;;;;;;1999.90;999.90;;;6.80;99.90;;;;;;6731448;88;20532;-77
2022/11/21 08:10:42;;;;;;;1999.90;999.90;;;7.00;99.90;;;;;;6738285;88;20231;-78
2022/11/21 08:20:43;;;;;;;1999.90;999.90;;;7.10;99.90;;;;;;6734463;88;20996;-77
2022/11/21 08:30:44;;;;;;;1999.90;999.90;;;7.20;99.90;;;;;;6729918;88;20177;-77
2022/11/21 08:40:44;;;;;;;1999.90;999.90;;;7.20;99.90;;;;;;6738883;88;20252;-77
2022/11/21 08:50:45;;;;;;;1999.90;999.90;;;7.30;99.90;;;;;;6731894;88;20188;-77
2022/11/21 09:00:45;;;;;;;1999.90;999.90;;;7.50;99.90;;;;;;6733944;88;20215;-77
2022/11/21 09:10:46;;;;;;;1999.90;999.90;;;7.50;99.90;;;;;;6735906;88;20562;-77
2022/11/21 09:20:46;;;;;;;1999.90;999.90;;;7.90;99.90;;;;;;6733701;88;20282;-78
2022/11/21 09:30:47;;;;;;;1999.90;999.90;;;8.90;99.90;;;;;;6727079;88;20703;-77
2022/11/21 09:40:47;;;;;;;1999.90;999.90;;;9.60;99.90;;;;;;6736182;88;20789;-78
2022/11/21 09:50:54;;;;;;;1999.90;999.90;;;9.90;99.90;;;;;;6726355;88;20206;-78
2022/11/21 10:00:55;;;;;;;1999.90;999.90;;;10.20;99.90;;;;;;6737514;88;20592;-78
2022/11/21 10:11:06;;;;;;;1999.90;999.90;;;11.20;99.90;;;;;;6729554;88;20609;-76
2022/11/21 10:21:31;;;;;;;1999.90;999.90;;;10.60;99.90;;;;;;6729106;88;20229;-77
2022/11/21 10:31:37;;;;;;;1999.90;999.90;;;11.10;99.90;;;;;;6730834;88;20260;-77
2022/11/21 10:41:55;;;;;;;1999.90;999.90;;;11.90;99.90;;;;;;6733584;88;20203;-76
2022/11/21 10:52:10;;;;;;;1999.90;999.90;;;11.60;99.90;;;;;;6734208;88;20330;-76
2022/11/21 11:02:13;;;;;;;1999.90;999.90;;;12.00;99.90;;;;;;6733030;88;20602;-77
2022/11/21 11:22:49;;;;;;;1999.90;999.90;;;11.90;99.90;;;;;;6735739;88;20205;-76
2022/11/21 11:32:50;;;;;;;1999.90;999.90;;;12.20;99.90;;;;;;6737653;88;20258;-76
2022/11/21 11:53:52;;;;;;;1999.90;999.90;;;11.70;99.90;;;;;;6730691;88;20653;-76
2022/11/21 12:04:12;;;;;;;1999.90;999.90;;;11.50;99.90;;;;;;6738875;88;20640;-76
2022/11/21 12:25:13;;;;;;;1999.90;999.90;;;10.80;99.90;;;;;;6732732;88;20675;-77
2022/11/21 12:35:13;;;;;;;1999.90;999.90;;;11.10;99.90;;;;;;6737664;88;20211;-77
2022/11/21 12:45:36;;;;;;;1999.90;999.90;;;12.10;99.90;;;;;;6734431;88;20200;-77
2022/11/21 12:55:39;;;;;;;1999.90;999.90;;;11.30;99.90;;;;;;6732707;88;20654;-76
2022/11/21 13:05:41;;;;;;;1999.90;999.90;;;11.60;99.90;;;;;;6734729;88;20185;-76
2022/11/21 13:16:10;;;;;;;1999.90;999.90;;;11.70;99.90;;;;;;6747119;88;20177;-76
2022/11/21 13:26:37;;;;;;;1999.90;999.90;;;11.50;99.90;;;;;;6732227;88;20713;-76
2022/11/21 13:36:39;;;;;;;1999.90;999.90;;;10.30;99.90;;;;;;6737261;87;20228;-76
2022/11/21 13:47:02;;;;;;;1999.90;999.90;;;10.40;99.90;;;;;;6732663;88;20226;-76
2022/11/21 13:57:11;;;;;;;1999.90;999.90;;;10.20;99.90;;;;;;6739867;88;20215;-76
2022/11/21 14:07:30;;;;;;;1999.90;999.90;;;9.80;99.90;;;;;;6740325;88;20243;-75
2022/11/21 14:17:48;;;;;;;1999.90;999.90;;;9.80;99.90;;;;;;6747746;88;20198;-76
2022/11/21 14:27:52;;;;;;;1999.90;999.90;;;9.70;99.90;;;;;;6736113;88;20321;-76
2022/11/21 14:37:53;;;;;;;1999.90;999.90;;;9.60;99.90;;;;;;6732667;87;20217;-75
2022/11/21 14:47:54;;;;;;;1999.90;999.90;;;9.00;99.90;;;;;;6735473;88;20218;-76
2022/11/21 14:57:56;;;;;;;1999.90;999.90;;;8.80;99.90;;;;;;6734288;88;20209;-76
2022/11/21 15:07:59;;;;;;;1999.90;999.90;;;8.60;99.90;;;;;;6736028;88;20332;-76
2022/11/21 15:18:05;;;;;;;1999.90;999.90;;;8.40;99.90;;;;;;6733663;88;20217;-76
2022/11/21 15:28:08;;;;;;;1999.90;999.90;;;8.40;99.90;;;;;;6733673;88;20182;-76
2022/11/21 15:38:15;;;;;;;1999.90;999.90;;;8.20;99.90;;;;;;6734348;88;20188;-76
2022/11/21 15:48:16;;;;;;;1999.90;999.90;;;8.00;99.90;;;;;;6734157;88;20196;-76
2022/11/21 15:58:17;;;;;;;1999.90;999.90;;;8.00;99.90;;;;;;6736765;88;20220;-76
2022/11/21 16:08:17;;;;;;;1999.90;999.90;;;7.80;99.90;;;;;;6737490;88;20192;-76
2022/11/21 16:18:18;;;;;;;1999.90;999.90;;;7.80;99.90;;;;;;6737802;88;20238;-76
2022/11/21 16:28:18;;;;;;;1999.90;999.90;;;7.80;99.90;;;;;;6734473;88;20185;-77
2022/11/21 16:38:28;;;;;;;1999.90;999.90;;;7.70;99.90;;;;;;6736030;88;20197;-77
2022/11/21 16:48:29;;;;;;;1999.90;999.90;;;7.70;99.90;;;;;;6735001;88;20516;-77
2022/11/21 16:58:29;;;;;;;1999.90;999.90;;;7.70;99.90;;;;;;6746246;88;20186;-77
2022/11/21 17:08:30;;;;;;;1999.90;999.90;;;7.50;99.90;;;;;;6739072;88;20200;-77
2022/11/21 17:18:30;;;;;;;1999.90;999.90;;;7.60;99.90;;;;;;6750472;88;20629;-76
2022/11/21 17:28:32;;;;;;;1999.90;999.90;;;7.60;99.90;;;;;;6734775;88;20540;-77
2022/11/21 17:38:32;;;;;;;1999.90;999.90;;;7.60;99.90;;;;;;6724040;88;20745;-77
2022/11/21 17:48:34;;;;;;;1999.90;999.90;;;7.50;99.90;;;;;;6739871;88;20201;-77
2022/11/21 17:58:35;;;;;;;1999.90;999.90;;;7.50;99.90;;;;;;6735937;88;20330;-77
2022/11/21 18:08:38;;;;;;;1999.90;999.90;;;7.50;99.90;;;;;;6728490;88;20217;-77
2022/11/21 18:18:38;;;;;;;1999.90;999.90;;;7.50;99.90;;;;;;6744079;88;20499;-81
2022/11/21 18:28:40;;;;;;;1999.90;999.90;;;7.60;99.90;;;;;;6756320;88;20231;-79
2022/11/21 18:38:42;;;;;;;1999.90;999.90;;;7.70;99.90;;;;;;6753885;88;20195;-79
2022/11/21 18:48:43;;;;;;;1999.90;999.90;;;7.70;99.90;;;;;;6747249;88;20700;-77
2022/11/21 18:58:44;;;;;;;1999.90;999.90;;;7.60;99.90;;;;;;6741842;88;21034;-78
2022/11/21 19:08:46;;;;;;;1999.90;999.90;;;7.60;99.90;;;;;;6742624;88;20254;-80
2022/11/21 19:18:46;;;;;;;1999.90;999.90;;;7.50;99.90;;;;;;6721840;88;20193;-80
2022/11/21 19:28:47;;;;;;;1999.90;999.90;;;7.40;99.90;;;;;;6720998;88;20216;-78
2022/11/21 19:38:48;;;;;;;1999.90;999.90;;;7.50;99.90;;;;;;6726743;88;20266;-80
2022/11/21 19:48:51;;;;;;;1999.90;999.90;;;7.50;99.90;;;;;;6727915;88;20173;-80
2022/11/21 19:58:53;;;;;;;1999.90;999.90;;;7.50;99.90;;;;;;6731334;88;20213;-79
2022/11/21 20:09:06;;;;;;;1999.90;999.90;;;7.60;99.90;;;;;;6759773;88;20211;-79
2022/11/21 20:19:09;;;;;;;1999.90;999.90;;;7.60;99.90;;;;;;6732136;88;20634;-80
2022/11/21 20:29:13;;;;;;;1999.90;999.90;;;7.70;99.90;;;;;;6738043;88;20237;-80
2022/11/21 20:39:16;;;;;;;1999.90;999.90;;;7.60;99.90;;;;;;6746827;88;20267;-79
2022/11/21 20:49:17;;;;;;;1999.90;999.90;;;7.70;99.90;;;;;;6751004;88;20670;-79
2022/11/21 20:59:17;;;;;;;1999.90;999.90;;;7.80;99.90;;;;;;6743123;88;20220;-79
2022/11/21 21:09:18;;;;;;;1999.90;999.90;;;7.90;99.90;;;;;;6748216;88;20220;-78
2022/11/21 21:19:18;;;;;;;1999.90;999.90;;;7.90;99.90;;;;;;6737747;88;20543;-79
2022/11/21 21:29:20;;;;;;;1999.90;999.90;;;7.80;99.90;;;;;;6750306;88;20225;-78
2022/11/21 21:39:20;;;;;;;1999.90;999.90;;;7.70;99.90;;;;;;6743041;88;20201;-78
2022/11/21 21:49:22;;;;;;;1999.90;999.90;;;7.60;99.90;;;;;;6746456;88;20234;-79
2022/11/21 21:59:24;;;;;;;1999.90;999.90;;;7.60;99.90;;;;;;6735505;88;20190;-78
2022/11/21 22:09:25;;;;;;;1999.90;999.90;;;7.50;99.90;;;;;;6737077;88;20180;-79
2022/11/21 22:19:25;;;;;;;1999.90;999.90;;;7.50;99.90;;;;;;6739717;88;20181;-79
2022/11/21 22:29:26;;;;;;;1999.90;999.90;;;7.40;99.90;;;;;;6733466;88;20983;-79
2022/11/21 22:39:26;;;;;;;1999.90;999.90;;;7.30;99.90;;;;;;6741217;88;20336;-79
2022/11/21 22:49:27;;;;;;;1999.90;999.90;;;7.30;99.90;;;;;;6735914;88;20198;-79
2022/11/21 22:59:27;;;;;;;1999.90;999.90;;;7.20;99.90;;;;;;6750638;88;20329;-79
2022/11/21 23:09:28;;;;;;;1999.90;999.90;;;7.20;99.90;;;;;;6740963;88;20690;-78
2022/11/21 23:19:28;;;;;;;1999.90;999.90;;;7.10;99.90;;;;;;6739275;88;20266;-78
2022/11/21 23:29:29;;;;;;;1999.90;999.90;;;7.10;99.90;;;;;;6736788;88;20665;-79
2022/11/21 23:39:30;;;;;;;1999.90;999.90;;;7.20;99.90;;;;;;6742724;88;20212;-79
2022/11/21 23:49:30;;;;;;;1999.90;999.90;;;7.10;99.90;;;;;;6755255;88;20614;-79
2022/11/21 23:59:31;;;;;;;1999.90;999.90;;;7.10;99.90;;;;;;6752070;88;20280;-82
